createdAt,value
2018-02-17T00:01:47.984Z,35.33
2018-02-17T00:04:17.029Z,32.53
2018-02-17T00:06:45.310Z,31.35
2018-02-17T00:09:13.576Z,36.55
2018-02-17T00:11:41.852Z,36.10
2018-02-17T00:14:10.881Z,37.70
2018-02-17T00:16:39.174Z,38.20
2018-02-17T00:19:07.451Z,41.88
2018-02-17T00:21:36.499Z,35.70
2018-02-17T00:24:04.770Z,37.63
2018-02-17T00:26:33.037Z,33.38
2018-02-17T00:29:02.069Z,36.13
2018-02-17T00:31:30.391Z,32.60
2018-02-17T00:33:58.653Z,31.58
2018-02-17T00:36:26.921Z,38.65
2018-02-17T00:38:55.189Z,35.88
2018-02-17T00:41:24.230Z,43.25
2018-02-17T00:43:52.518Z,38.00
2018-02-17T00:46:20.797Z,37.75
2018-02-17T00:48:49.824Z,34.60
2018-02-17T00:51:18.109Z,40.58
2018-02-17T00:53:46.368Z,37.88
2018-02-17T00:56:15.429Z,40.75
2018-02-17T00:58:43.697Z,36.53
2018-02-17T01:01:11.973Z,38.42
2018-02-17T01:03:40.255Z,39.30
2018-02-17T01:06:09.304Z,34.25
2018-02-17T01:08:37.578Z,41.63
2018-02-17T01:11:05.852Z,38.15
2018-02-17T01:13:34.126Z,37.45
2018-02-17T01:16:03.168Z,45.78
2018-02-17T01:18:31.433Z,33.42
2018-02-17T01:21:00.473Z,38.78
2018-02-17T01:23:28.737Z,39.08
2018-02-17T01:25:57.032Z,41.78
2018-02-17T01:28:25.976Z,39.50
2018-02-17T01:30:54.253Z,38.92
2018-02-17T01:33:22.531Z,34.22
2018-02-17T01:35:50.818Z,35.28
2018-02-17T01:38:19.068Z,45.25
2018-02-17T01:40:48.123Z,38.47
2018-02-17T01:43:16.394Z,34.60
2018-02-17T01:45:44.670Z,38.10
2018-02-17T01:48:12.953Z,37.30
2018-02-17T01:50:42.009Z,34.55
2018-02-17T01:53:10.272Z,36.10
2018-02-17T01:55:38.550Z,34.80
2018-02-17T01:58:06.814Z,39.78
2018-02-17T02:00:35.861Z,34.17
2018-02-17T02:03:04.125Z,31.40
2018-02-17T02:05:33.166Z,33.28
2018-02-17T02:08:01.450Z,42.88
2018-02-17T02:10:29.721Z,40.40
2018-02-17T02:12:58.000Z,37.05
2018-02-17T02:15:26.270Z,43.50
2018-02-17T02:17:54.553Z,36.50
2018-02-17T02:20:22.829Z,33.60
2018-02-17T02:22:51.126Z,36.22
2018-02-17T02:25:19.397Z,35.90
2018-02-17T02:27:47.682Z,34.33
2018-02-17T02:30:15.958Z,39.63
2018-02-17T02:32:44.238Z,38.50
2018-02-17T02:35:12.501Z,35.95
2018-02-17T02:37:40.790Z,37.42
2018-02-17T02:40:09.054Z,34.72
2018-02-17T02:42:37.336Z,36.00
2018-02-17T02:45:05.605Z,33.75
2018-02-17T02:47:33.897Z,39.08
2018-02-17T02:50:02.162Z,41.95
2018-02-17T02:52:30.436Z,39.45
2018-02-17T02:54:58.710Z,36.13
2018-02-17T02:57:26.993Z,37.45
2018-02-17T02:59:56.038Z,32.60
2018-02-17T03:02:24.317Z,35.38
2018-02-17T03:04:52.595Z,38.05
2018-02-17T03:07:21.373Z,36.63
2018-02-17T03:09:50.412Z,35.97
2018-02-17T03:12:19.457Z,42.53
2018-02-17T03:14:47.750Z,34.05
2018-02-17T03:17:16.016Z,36.08
2018-02-17T03:19:44.291Z,35.53
2018-02-17T03:22:12.570Z,36.22
2018-02-17T03:24:40.836Z,39.85
2018-02-17T03:27:09.118Z,34.92
2018-02-17T03:29:38.153Z,34.72
2018-02-17T03:32:06.427Z,40.80
2018-02-17T03:34:34.705Z,41.55
2018-02-17T03:37:03.741Z,39.88
2018-02-17T03:39:32.016Z,37.38
2018-02-17T03:42:00.297Z,39.50
2018-02-17T03:44:28.560Z,37.70
2018-02-17T03:46:57.610Z,32.63
2018-02-17T03:49:26.635Z,36.08
2018-02-17T03:51:54.909Z,37.30
2018-02-17T03:54:23.176Z,38.75
2018-02-17T03:56:51.466Z,39.20
2018-02-17T03:59:19.738Z,37.47
2018-02-17T04:01:48.789Z,40.05
2018-02-17T04:04:17.054Z,38.95
2018-02-17T04:06:45.336Z,38.92
2018-02-17T04:09:13.604Z,36.53
2018-02-17T04:11:42.657Z,36.67
2018-02-17T04:14:10.926Z,33.65
2018-02-17T04:16:39.195Z,45.88
2018-02-17T04:19:07.464Z,32.65
2018-02-17T04:21:36.513Z,32.05
2018-02-17T04:24:04.778Z,31.85
2018-02-17T04:26:33.056Z,37.65
2018-02-17T04:29:02.083Z,37.47
2018-02-17T04:31:30.366Z,37.75
2018-02-17T04:33:58.641Z,43.60
2018-02-17T04:36:27.697Z,39.80
2018-02-17T04:38:55.969Z,35.60
2018-02-17T04:41:27.036Z,37.67
2018-02-17T04:44:00.777Z,37.95
2018-02-17T04:46:35.000Z,36.25
2018-02-17T04:49:09.432Z,32.60
2018-02-17T04:51:40.574Z,36.65
2018-02-17T04:54:20.384Z,33.97
2018-02-17T04:59:57.723Z,35.85
2018-02-17T05:02:36.797Z,44.05
2018-02-17T05:05:05.225Z,36.33
2018-02-17T05:10:37.442Z,37.60
2018-02-17T05:13:05.708Z,39.65
2018-02-17T05:15:37.865Z,43.30
2018-02-17T05:18:07.035Z,45.42
2018-02-17T05:20:36.848Z,36.00
2018-02-17T05:23:07.190Z,46.15
2018-02-17T05:28:43.222Z,36.33
2018-02-17T05:31:23.312Z,37.63
2018-02-17T05:34:12.419Z,36.85
2018-02-17T05:36:43.000Z,39.85
2018-02-17T05:39:11.317Z,40.60
2018-02-17T05:41:45.548Z,39.35
2018-02-17T05:44:19.785Z,38.60
2018-02-17T05:46:48.062Z,39.50
2018-02-17T05:49:17.004Z,36.85
2018-02-17T05:51:45.282Z,36.85
2018-02-17T05:54:13.574Z,35.00
2018-02-17T05:56:41.845Z,37.95
2018-02-17T05:59:10.128Z,37.10
2018-02-17T06:01:39.217Z,37.97
2018-02-17T06:04:07.492Z,47.58
2018-02-17T06:06:35.766Z,40.70
2018-02-17T06:09:04.053Z,36.10
2018-02-17T06:11:33.105Z,36.47
2018-02-17T06:14:01.380Z,39.90
2018-02-17T06:16:29.658Z,39.40
2018-02-17T06:18:57.928Z,34.70
2018-02-17T06:21:26.201Z,36.13
2018-02-17T06:23:55.249Z,42.75
2018-02-17T06:26:23.522Z,41.90
2018-02-17T06:28:51.792Z,39.65
2018-02-17T06:31:20.823Z,40.08
2018-02-17T06:33:49.097Z,43.97
2018-02-17T06:36:17.376Z,49.42
2018-02-17T06:38:46.416Z,41.95
2018-02-17T06:41:14.771Z,40.92
2018-02-17T06:43:43.074Z,38.45
2018-02-17T06:46:11.340Z,38.33
2018-02-17T06:48:40.388Z,41.35
2018-02-17T06:51:08.652Z,42.30
2018-02-17T06:53:36.937Z,41.60
2018-02-17T06:56:05.211Z,47.42
2018-02-17T06:58:34.261Z,44.22
2018-02-17T07:01:02.523Z,38.60
2018-02-17T07:03:30.793Z,41.33
2018-02-17T07:05:59.882Z,41.55
2018-02-17T07:08:28.141Z,38.50
2018-02-17T07:10:56.429Z,39.80
2018-02-17T07:13:24.689Z,39.38
2018-02-17T07:15:52.974Z,39.88
2018-02-17T07:18:21.237Z,38.55
2018-02-17T07:20:50.273Z,37.08
2018-02-17T07:23:18.547Z,34.58
2018-02-17T07:25:46.838Z,33.70
2018-02-17T07:28:15.115Z,35.22
2018-02-17T07:30:44.144Z,42.25
2018-02-17T07:33:12.418Z,37.28
2018-02-17T07:35:40.697Z,39.33
2018-02-17T07:38:09.720Z,36.97
2018-02-17T07:40:38.002Z,38.35
2018-02-17T07:43:06.260Z,34.65
2018-02-17T07:45:34.540Z,36.83
2018-02-17T07:48:02.798Z,40.17
2018-02-17T07:50:31.098Z,42.90
2018-02-17T07:52:59.370Z,36.28
2018-02-17T07:55:27.632Z,36.58
2018-02-17T07:57:55.905Z,37.70
2018-02-17T08:00:24.931Z,35.55
2018-02-17T08:02:53.205Z,37.38
2018-02-17T08:05:22.260Z,39.83
2018-02-17T08:07:50.544Z,39.35
2018-02-17T08:10:19.594Z,38.97
2018-02-17T08:12:48.621Z,40.25
2018-02-17T08:15:16.901Z,34.28
2018-02-17T08:17:45.923Z,40.95
2018-02-17T08:20:14.447Z,39.00
2018-02-17T08:22:42.720Z,38.10
2018-02-17T08:25:10.993Z,31.58
2018-02-17T08:27:39.260Z,43.30
2018-02-17T08:30:08.296Z,34.65
2018-02-17T08:32:36.565Z,36.53
2018-02-17T08:37:40.030Z,35.33
2018-02-17T08:40:08.319Z,37.00
2018-02-17T08:42:36.594Z,32.15
2018-02-17T08:45:04.874Z,37.30
2018-02-17T08:47:33.149Z,40.20
2018-02-17T08:50:02.193Z,33.70
2018-02-17T08:52:31.379Z,36.45
2018-02-17T08:54:59.660Z,31.50
2018-02-17T08:57:28.872Z,32.03
2018-02-17T08:59:57.152Z,31.00
2018-02-17T09:02:26.189Z,28.40
2018-02-17T09:04:54.460Z,30.67
2018-02-17T09:07:22.734Z,30.07
2018-02-17T09:09:51.773Z,31.87
2018-02-17T09:12:20.040Z,32.03
2018-02-17T09:14:48.331Z,34.37
2018-02-17T09:17:16.592Z,34.40
2018-02-17T09:19:45.640Z,33.40
2018-02-17T09:22:13.896Z,33.27
2018-02-17T09:24:42.928Z,35.27
2018-02-17T09:27:11.210Z,32.37
2018-02-17T09:29:39.475Z,31.67
2018-02-17T09:32:08.518Z,33.80
2018-02-17T09:34:36.798Z,33.77
2018-02-17T09:37:05.064Z,33.90
2018-02-17T09:39:33.347Z,34.27
2018-02-17T09:42:02.373Z,31.43
2018-02-17T09:44:30.644Z,30.07
2018-02-17T09:46:59.669Z,27.60
2018-02-17T09:49:27.946Z,30.33
2018-02-17T09:51:56.218Z,26.63
2018-02-17T09:54:25.246Z,26.63
2018-02-17T09:56:53.512Z,27.53
2018-02-17T09:59:22.542Z,24.40
2018-02-17T10:01:50.822Z,24.57
2018-02-17T10:04:19.074Z,28.07
2018-02-17T10:06:47.341Z,26.60
2018-02-17T10:09:15.601Z,27.90
2018-02-17T10:11:43.878Z,23.70
2018-02-17T10:14:12.135Z,25.00
2018-02-17T10:16:40.401Z,25.10
2018-02-17T10:19:08.669Z,26.00
2018-02-17T10:21:36.949Z,22.90
2018-02-17T10:24:05.213Z,21.53
2018-02-17T10:26:33.494Z,25.70
2018-02-17T10:29:02.526Z,24.57
2018-02-17T10:31:30.797Z,19.30
2018-02-17T10:33:59.062Z,20.40
2018-02-17T10:36:27.340Z,25.23
2018-02-17T10:38:55.600Z,23.43
2018-02-17T10:41:23.875Z,21.47
2018-02-17T10:44:02.050Z,21.50
2018-02-17T10:46:30.329Z,25.33
2018-02-17T10:48:58.611Z,24.23
2018-02-17T10:51:26.904Z,24.10
2018-02-17T10:53:55.180Z,20.13
2018-02-17T10:56:23.440Z,20.67
2018-02-17T10:58:52.479Z,21.83
2018-02-17T11:01:20.757Z,21.10
2018-02-17T11:03:49.036Z,22.00
2018-02-17T11:06:17.332Z,25.30
2018-02-17T11:08:46.340Z,22.63
2018-02-17T11:11:15.588Z,20.20
2018-02-17T11:13:44.633Z,21.40
2018-02-17T11:16:12.915Z,19.70
2018-02-17T11:18:41.181Z,20.57
2018-02-17T11:21:10.215Z,21.13
2018-02-17T11:23:38.477Z,20.63
2018-02-17T11:26:07.525Z,27.60
2018-02-17T11:28:35.799Z,20.67
2018-02-17T11:31:04.068Z,20.10
2018-02-17T11:33:32.335Z,24.07
2018-02-17T11:36:01.371Z,19.33
2018-02-17T11:38:29.628Z,20.53
2018-02-17T11:40:58.665Z,20.07
2018-02-17T11:43:26.933Z,22.17
2018-02-17T11:45:55.986Z,19.87
2018-02-17T11:48:24.284Z,19.90
2018-02-17T11:50:52.548Z,19.97
2018-02-17T11:53:20.817Z,17.97
2018-02-17T11:55:49.104Z,22.33
2018-02-17T11:58:17.375Z,18.67
2018-02-17T12:00:46.408Z,18.33
2018-02-17T12:03:14.673Z,21.47
2018-02-17T12:05:43.718Z,17.20
2018-02-17T12:08:11.986Z,19.37
2018-02-17T12:10:40.260Z,17.13
2018-02-17T12:13:09.301Z,18.70
2018-02-17T12:15:37.661Z,17.40
2018-02-17T12:18:06.709Z,18.90
2018-02-17T12:20:34.999Z,20.90
2018-02-17T12:23:03.401Z,18.10
2018-02-17T12:25:32.594Z,19.77
2018-02-17T12:28:00.879Z,21.70
2018-02-17T12:30:29.146Z,15.87
2018-02-17T12:32:57.426Z,19.70
2018-02-17T12:35:25.691Z,16.70
2018-02-17T12:37:54.725Z,18.67
2018-02-17T12:40:22.993Z,17.87
2018-02-17T12:42:52.053Z,20.63
2018-02-17T12:45:20.308Z,17.90
2018-02-17T12:47:48.784Z,20.50
2018-02-17T12:50:17.088Z,24.27
2018-02-17T12:52:45.362Z,18.03
2018-02-17T12:55:14.380Z,19.30
2018-02-17T12:57:42.661Z,21.27
2018-02-17T13:00:10.924Z,26.93
2018-02-17T13:02:39.193Z,18.70
2018-02-17T13:05:07.451Z,21.33
2018-02-17T13:07:35.729Z,20.67
2018-02-17T13:10:03.981Z,19.70
2018-02-17T13:12:32.258Z,20.73
2018-02-17T13:15:00.526Z,19.50
2018-02-17T13:17:28.800Z,23.37
2018-02-17T13:19:57.057Z,21.27
2018-02-17T13:22:25.316Z,20.27
2018-02-17T13:24:53.580Z,21.20
2018-02-17T13:27:21.846Z,21.43
2018-02-17T13:29:50.119Z,23.03
2018-02-17T13:32:18.386Z,22.33
2018-02-17T13:34:47.426Z,21.93
2018-02-17T13:37:15.693Z,20.50
2018-02-17T13:39:43.960Z,26.80
2018-02-17T13:42:12.226Z,24.93
2018-02-17T13:44:40.492Z,22.60
2018-02-17T13:47:08.758Z,25.37
2018-02-17T13:49:37.023Z,23.77
2018-02-17T13:52:06.053Z,24.67
2018-02-17T13:54:34.326Z,26.57
2018-02-17T13:57:02.589Z,21.33
2018-02-17T13:59:30.857Z,22.83
2018-02-17T14:01:59.141Z,20.67
2018-02-17T14:04:27.401Z,20.70
2018-02-17T14:06:55.665Z,23.30
2018-02-17T14:09:24.712Z,22.27
2018-02-17T14:11:52.978Z,22.37
2018-02-17T14:14:21.413Z,17.07
2018-02-17T14:16:49.737Z,18.73
2018-02-17T14:19:18.020Z,23.20
2018-02-17T14:21:47.051Z,20.20
2018-02-17T14:24:15.334Z,20.73
2018-02-17T14:26:43.597Z,18.23
2018-02-17T14:29:11.857Z,19.00
2018-02-17T14:31:40.120Z,19.40
2018-02-17T14:34:08.383Z,23.90
2018-02-17T14:36:36.648Z,18.83
2018-02-17T14:39:04.955Z,22.60
2018-02-17T14:41:33.994Z,21.60
2018-02-17T14:44:02.278Z,21.40
2018-02-17T14:46:30.554Z,28.13
2018-02-17T14:48:58.826Z,21.83
2018-02-17T14:51:27.861Z,25.77
2018-02-17T14:53:57.018Z,24.97
2018-02-17T14:56:25.279Z,22.97
2018-02-17T14:58:53.548Z,21.03
2018-02-17T15:01:22.727Z,29.50
2018-02-17T15:03:51.006Z,24.35
2018-02-17T15:06:20.063Z,25.00
2018-02-17T15:08:48.324Z,22.70
2018-02-17T15:11:16.599Z,23.83
2018-02-17T15:13:44.997Z,21.67
2018-02-17T15:16:13.455Z,23.63
2018-02-17T15:18:41.717Z,22.60
2018-02-17T15:21:10.006Z,21.53
2018-02-17T15:23:38.274Z,23.97
2018-02-17T15:26:06.540Z,24.73
2018-02-17T15:28:34.804Z,25.92
2018-02-17T15:31:03.841Z,24.93
2018-02-17T15:33:32.105Z,17.42
2018-02-17T15:36:01.154Z,19.92
2018-02-17T15:38:29.413Z,17.85
2018-02-17T15:40:57.689Z,18.15
2018-02-17T15:43:26.728Z,22.27
2018-02-17T15:45:55.022Z,18.73
2018-02-17T15:48:23.291Z,20.37
2018-02-17T15:50:51.558Z,19.77
2018-02-17T15:53:20.592Z,23.30
2018-02-17T15:55:48.848Z,18.70
2018-02-17T15:58:17.887Z,27.17
2018-02-17T16:00:46.157Z,19.60
2018-02-17T16:03:14.428Z,16.50
2018-02-17T16:05:42.692Z,22.92
2018-02-17T16:08:10.981Z,17.62
2018-02-17T16:10:39.252Z,20.37
2018-02-17T16:13:07.525Z,23.05
2018-02-17T16:15:35.794Z,16.92
2018-02-17T16:18:04.097Z,24.23
2018-02-17T16:20:32.360Z,23.10
2018-02-17T16:23:01.410Z,22.87
2018-02-17T16:25:29.673Z,21.92
2018-02-17T16:27:57.989Z,18.10
2018-02-17T16:30:26.253Z,20.15
2018-02-17T16:32:54.537Z,22.00
2018-02-17T16:35:22.818Z,20.80
2018-02-17T16:37:51.106Z,26.67
2018-02-17T16:40:19.376Z,23.58
2018-02-17T16:42:48.416Z,28.20
2018-02-17T16:45:16.686Z,22.40
2018-02-17T16:47:44.957Z,29.90
2018-02-17T16:50:13.988Z,23.90
2018-02-17T16:52:42.260Z,24.55
2018-02-17T16:55:10.521Z,23.33
2018-02-17T16:57:38.822Z,29.42
2018-02-17T17:00:07.085Z,33.53
2018-02-17T17:02:35.352Z,33.80
2018-02-17T17:05:03.622Z,26.37
2018-02-17T17:07:31.904Z,27.30
2018-02-17T17:10:00.164Z,24.50
2018-02-17T17:12:28.435Z,26.17
2018-02-17T17:14:56.704Z,21.92
2018-02-17T17:17:24.986Z,25.42
2018-02-17T17:19:53.254Z,23.60
2018-02-17T17:22:21.537Z,28.83
2018-02-17T17:24:49.806Z,27.52
2018-02-17T17:27:18.845Z,25.08
2018-02-17T17:29:47.117Z,27.75
2018-02-17T17:32:15.413Z,27.40
2018-02-17T17:34:43.684Z,28.35
2018-02-17T17:37:12.727Z,30.88
2018-02-17T17:39:41.005Z,30.92
2018-02-17T17:42:09.295Z,25.95
2018-02-17T17:44:37.596Z,20.85
2018-02-17T17:47:05.894Z,25.42
2018-02-17T17:49:34.171Z,27.03
2018-02-17T17:52:02.457Z,22.92
2018-02-17T17:54:30.725Z,23.70
2018-02-17T17:56:59.015Z,22.40
2018-02-17T17:59:27.294Z,28.35
2018-02-17T18:01:55.572Z,28.98
2018-02-17T18:04:24.629Z,26.98
2018-02-17T18:06:52.918Z,26.43
2018-02-17T18:09:21.236Z,26.23
2018-02-17T18:11:49.521Z,27.25
2018-02-17T18:14:17.812Z,25.17
2018-02-17T18:16:46.143Z,29.98
2018-02-17T18:19:14.425Z,29.27
2018-02-17T18:21:42.733Z,29.52
2018-02-17T18:24:11.022Z,31.12
2018-02-17T18:26:39.318Z,27.58
2018-02-17T18:29:07.597Z,31.80
2018-02-17T18:31:35.886Z,25.92
2018-02-17T18:34:04.222Z,22.92
2018-02-17T18:36:32.522Z,26.15
2018-02-17T18:39:01.606Z,26.50
2018-02-17T18:41:29.904Z,30.40
2018-02-17T18:43:58.196Z,36.03
2018-02-17T18:46:26.482Z,27.62
2018-02-17T18:48:54.801Z,27.02
2018-02-17T18:51:23.850Z,25.05
2018-02-17T18:53:52.133Z,23.80
2018-02-17T18:56:20.408Z,25.07
2018-02-17T18:58:48.696Z,21.77
2018-02-17T19:01:17.038Z,28.70
2018-02-17T19:03:46.124Z,23.62
2018-02-17T19:06:14.417Z,26.77
2018-02-17T19:08:42.704Z,27.70
2018-02-17T19:11:10.976Z,17.77
2018-02-17T19:13:39.249Z,17.83
2018-02-17T19:16:08.300Z,18.67
2018-02-17T19:18:36.590Z,19.85
2018-02-17T19:21:04.873Z,19.02
2018-02-17T19:23:33.165Z,19.52
2018-02-17T19:26:01.437Z,17.15
2018-02-17T19:28:29.713Z,19.55
2018-02-17T19:30:58.033Z,18.48
2018-02-17T19:33:26.277Z,21.27
2018-02-17T19:35:54.555Z,16.40
2018-02-17T19:38:22.848Z,18.30
2018-02-17T19:40:51.111Z,17.85
2018-02-17T19:43:20.162Z,18.30
2018-02-17T19:45:48.435Z,20.17
2018-02-17T19:48:16.713Z,17.90
2018-02-17T19:50:44.984Z,16.20
2018-02-17T19:53:14.021Z,15.80
2018-02-17T19:55:42.306Z,14.98
2018-02-17T19:58:10.602Z,15.13
2018-02-17T20:00:38.875Z,16.25
2018-02-17T20:03:07.160Z,16.35
2018-02-17T20:05:35.437Z,14.30
2018-02-17T20:08:03.720Z,18.67
2018-02-17T20:10:32.754Z,16.62
2018-02-17T20:13:01.070Z,17.62
2018-02-17T20:15:29.361Z,15.63
2018-02-17T20:17:57.678Z,21.75
2018-02-17T20:20:25.940Z,15.82
2018-02-17T20:22:54.218Z,13.20
2018-02-17T20:25:22.489Z,13.75
2018-02-17T20:27:50.785Z,16.15
2018-02-17T20:30:19.061Z,16.08
2018-02-17T20:32:47.334Z,16.08
2018-02-17T20:35:15.607Z,18.77
2018-02-17T20:37:44.677Z,15.10
2018-02-17T20:40:12.956Z,15.13
2018-02-17T20:42:41.228Z,13.98
2018-02-17T20:45:09.509Z,14.23
2018-02-17T20:47:38.539Z,13.15
2018-02-17T20:50:06.850Z,12.73
2018-02-17T20:52:35.126Z,15.15
2018-02-17T20:55:03.970Z,11.50
2018-02-17T20:57:33.003Z,14.57
2018-02-17T21:00:01.353Z,16.10
2018-02-17T21:02:29.571Z,15.37
2018-02-17T21:04:57.866Z,17.70
2018-02-17T21:07:26.140Z,22.93
2018-02-17T21:09:55.172Z,18.20
2018-02-17T21:12:23.442Z,15.77
2018-02-17T21:14:51.734Z,12.23
2018-02-17T21:17:20.018Z,12.45
2018-02-17T21:19:48.300Z,12.18
2018-02-17T21:22:16.578Z,13.05
2018-02-17T21:24:45.620Z,16.77
2018-02-17T21:27:13.892Z,16.65
2018-02-17T21:29:42.213Z,13.50
2018-02-17T21:32:10.497Z,21.45
2018-02-17T21:34:38.784Z,26.10
2018-02-17T21:37:07.058Z,16.60
2018-02-17T21:39:35.331Z,25.00
2018-02-17T21:42:03.594Z,17.20
2018-02-17T21:44:31.878Z,14.30
2018-02-17T21:47:00.953Z,14.23
2018-02-17T21:49:29.242Z,17.70
2018-02-17T21:51:57.512Z,20.42
2018-02-17T21:54:25.796Z,15.23
2018-02-17T21:56:54.077Z,14.93
2018-02-17T21:59:22.363Z,13.77
2018-02-17T22:01:50.645Z,14.50
2018-02-17T22:04:18.933Z,13.13
2018-02-17T22:06:47.219Z,13.03
2018-02-17T22:09:15.513Z,14.13
2018-02-17T22:11:43.791Z,24.92
2018-02-17T22:14:12.843Z,19.58
2018-02-17T22:16:41.107Z,14.00
2018-02-17T22:19:09.383Z,14.95
2018-02-17T22:21:37.647Z,19.63
2018-02-17T22:24:06.696Z,14.00
2018-02-17T22:26:34.956Z,13.62
2018-02-17T22:29:04.005Z,16.52
2018-02-17T22:31:32.269Z,12.52
2018-02-17T22:34:01.309Z,11.45
2018-02-17T22:36:29.600Z,14.93
2018-02-17T22:38:57.895Z,14.57
2018-02-17T22:41:26.155Z,15.68
2018-02-17T22:43:54.450Z,21.67
2018-02-17T22:46:22.724Z,137.18
2018-02-17T22:48:51.004Z,38.38
2018-02-17T22:51:19.272Z,12.23
2018-02-17T22:53:48.338Z,14.57
2018-02-17T22:56:16.609Z,15.82
2018-02-17T22:58:44.885Z,11.35
2018-02-17T23:01:13.144Z,15.10
2018-02-17T23:03:42.181Z,14.00
2018-02-17T23:06:10.449Z,12.43
2018-02-17T23:08:39.482Z,14.55
2018-02-17T23:11:07.760Z,15.43
2018-02-17T23:13:36.038Z,13.95
2018-02-17T23:16:04.320Z,18.40
2018-02-17T23:18:32.584Z,17.98
2018-02-17T23:21:00.867Z,12.35
2018-02-17T23:23:29.146Z,12.90
2018-02-17T23:25:57.428Z,16.30
2018-02-17T23:28:25.692Z,12.65
2018-02-17T23:30:53.974Z,14.63
2018-02-17T23:33:22.262Z,16.85
2018-02-17T23:35:50.548Z,17.30
2018-02-17T23:38:18.818Z,12.82
2018-02-17T23:40:47.145Z,13.75
2018-02-17T23:43:15.371Z,15.48
2018-02-17T23:45:43.660Z,16.05
2018-02-17T23:48:11.924Z,16.10
2018-02-17T23:50:40.201Z,17.45
2018-02-17T23:53:08.477Z,12.35
2018-02-17T23:55:36.761Z,17.02
2018-02-17T23:58:05.040Z,19.55
